createdAt,value
2019-03-17T00:00:21.965Z,6.7
2019-03-17T00:01:21.701Z,6.7
2019-03-17T00:02:21.751Z,6.7
2019-03-17T00:03:21.829Z,6.8
2019-03-17T00:04:30.853Z,6.8
2019-03-17T00:05:22.664Z,6.8
2019-03-17T00:06:22.657Z,6.8
2019-03-17T00:07:22.794Z,6.8
2019-03-17T00:08:22.594Z,6.8
2019-03-17T00:09:22.837Z,6.8
2019-03-17T00:10:23.356Z,6.8
2019-03-17T00:11:23.348Z,6.8
2019-03-17T00:12:23.047Z,6.9
2019-03-17T00:13:25.332Z,6.9
2019-03-17T00:14:24.271Z,6.9
2019-03-17T00:15:23.656Z,6.9
2019-03-17T00:16:23.823Z,6.9
2019-03-17T00:17:25.094Z,6.9
2019-03-17T00:18:23.875Z,6.9
2019-03-17T00:19:23.400Z,6.9
2019-03-17T00:20:23.159Z,6.9
2019-03-17T00:21:24.634Z,6.9
2019-03-17T00:22:25.054Z,6.9
2019-03-17T00:23:23.249Z,6.9
2019-03-17T00:24:25.075Z,6.9
2019-03-17T00:25:22.993Z,6.9
2019-03-17T00:26:24.492Z,6.9
2019-03-17T00:27:25.855Z,6.9
2019-03-17T00:28:24.830Z,7
2019-03-17T00:29:23.286Z,7
2019-03-17T00:30:24.762Z,7
2019-03-17T00:31:24.377Z,7
2019-03-17T00:32:23.923Z,6.9
2019-03-17T00:33:23.952Z,6.9
2019-03-17T00:34:23.746Z,6.9
2019-03-17T00:35:23.585Z,6.9
2019-03-17T00:36:23.732Z,6.9
2019-03-17T00:37:23.856Z,7
2019-03-17T00:38:23.889Z,6.9
2019-03-17T00:39:23.988Z,7
2019-03-17T00:40:23.935Z,7
2019-03-17T00:41:23.997Z,7
2019-03-17T00:42:24.218Z,7
2019-03-17T00:43:24.003Z,7
2019-03-17T00:44:24.069Z,7.1
2019-03-17T00:45:24.158Z,7.1
2019-03-17T00:46:24.245Z,7.1
2019-03-17T00:47:24.285Z,7.1
2019-03-17T00:48:24.355Z,7.1
2019-03-17T00:49:24.418Z,7.1
2019-03-17T00:50:24.465Z,7.1
2019-03-17T00:51:24.609Z,7.1
2019-03-17T00:52:24.669Z,7.1
2019-03-17T00:53:24.676Z,7.1
2019-03-17T00:54:24.693Z,7.1
2019-03-17T00:55:25.057Z,7.1
2019-03-17T00:56:32.880Z,7.1
2019-03-17T00:57:25.194Z,7.1
2019-03-17T00:58:25.371Z,7.1
2019-03-17T00:59:31.436Z,7.1
2019-03-17T01:00:26.195Z,7.1
2019-03-17T01:01:25.100Z,7.1
2019-03-17T01:02:27.137Z,7.1
2019-03-17T01:03:25.231Z,7.1
2019-03-17T01:04:25.342Z,7.1
2019-03-17T01:05:25.541Z,7.1
2019-03-17T01:06:25.425Z,7.1
2019-03-17T01:07:26.113Z,7.1
2019-03-17T01:08:26.304Z,7.1
2019-03-17T01:09:26.535Z,7.1
2019-03-17T01:10:25.978Z,7.1
2019-03-17T01:11:25.805Z,7.1
2019-03-17T01:12:26.163Z,7.1
2019-03-17T01:13:25.784Z,7.1
2019-03-17T01:14:25.798Z,7.1
2019-03-17T01:15:25.862Z,7.2
2019-03-17T01:16:25.959Z,7.2
2019-03-17T01:17:26.000Z,7.1
2019-03-17T01:18:26.020Z,7.1
2019-03-17T01:19:26.117Z,7.1
2019-03-17T01:20:26.622Z,7.2
2019-03-17T01:21:26.168Z,7.2
2019-03-17T01:22:26.257Z,7.2
2019-03-17T01:23:26.514Z,7.2
2019-03-17T01:24:29.655Z,7.2
2019-03-17T01:25:26.355Z,7.2
2019-03-17T01:26:26.411Z,7.2
2019-03-17T01:27:26.460Z,7.2
2019-03-17T01:28:26.524Z,7.2
2019-03-17T01:29:26.565Z,7.2
2019-03-17T01:30:26.632Z,7.2
2019-03-17T01:31:26.696Z,7.2
2019-03-17T01:32:27.075Z,7.2
2019-03-17T01:33:26.853Z,7.2
2019-03-17T01:34:27.141Z,7.2
2019-03-17T01:35:26.965Z,7.2
2019-03-17T01:36:27.079Z,7.2
2019-03-17T01:37:27.069Z,7.2
2019-03-17T01:38:27.081Z,7.3
2019-03-17T01:39:27.118Z,7.3
2019-03-17T01:40:27.202Z,7.3
2019-03-17T01:41:27.249Z,7.3
2019-03-17T01:42:27.332Z,7.3
2019-03-17T01:43:27.410Z,7.3
2019-03-17T01:44:27.414Z,7.3
2019-03-17T01:45:27.487Z,7.3
2019-03-17T01:46:27.519Z,7.3
2019-03-17T01:47:27.899Z,7.3
2019-03-17T01:48:27.683Z,7.3
2019-03-17T01:49:27.687Z,7.3
2019-03-17T01:50:27.810Z,7.3
2019-03-17T01:51:27.780Z,7.3
2019-03-17T01:52:27.839Z,7.3
2019-03-17T01:53:27.906Z,7.3
2019-03-17T01:54:27.944Z,7.3
2019-03-17T01:55:28.027Z,7.3
2019-03-17T01:56:28.091Z,7.3
2019-03-17T01:57:28.136Z,7.3
2019-03-17T01:58:28.149Z,7.3
2019-03-17T01:59:28.243Z,7.3
2019-03-17T02:00:28.262Z,7.3
2019-03-17T02:01:28.650Z,7.3
2019-03-17T02:02:28.452Z,7.3
2019-03-17T02:03:28.727Z,7.3
2019-03-17T02:04:28.550Z,7.3
2019-03-17T02:05:28.564Z,7.3
2019-03-17T02:06:28.577Z,7.4
2019-03-17T02:07:28.635Z,7.4
2019-03-17T02:08:28.718Z,7.4
2019-03-17T02:09:28.745Z,7.4
2019-03-17T02:10:28.818Z,7.4
2019-03-17T02:11:29.426Z,7.4
2019-03-17T02:12:29.065Z,7.4
2019-03-17T02:13:29.090Z,7.4
2019-03-17T02:14:29.532Z,7.4
2019-03-17T02:15:29.760Z,7.4
2019-03-17T02:16:29.260Z,7.4
2019-03-17T02:17:29.374Z,7.4
2019-03-17T02:18:29.409Z,7.4
2019-03-17T02:19:29.450Z,7.4
2019-03-17T02:20:29.528Z,7.4
2019-03-17T02:21:29.398Z,7.4
2019-03-17T02:22:29.458Z,7.4
2019-03-17T02:23:29.547Z,7.4
2019-03-17T02:24:29.558Z,7.4
2019-03-17T02:25:29.587Z,7.4
2019-03-17T02:26:29.667Z,7.4
2019-03-17T02:27:29.712Z,7.4
2019-03-17T02:28:29.757Z,7.4
2019-03-17T02:29:29.797Z,7.4
2019-03-17T02:30:29.842Z,7.4
2019-03-17T02:31:29.902Z,7.4
2019-03-17T02:32:29.960Z,7.5
2019-03-17T02:33:29.986Z,7.5
2019-03-17T02:34:30.044Z,7.5
2019-03-17T02:35:38.388Z,7.5
2019-03-17T02:36:30.161Z,7.5
2019-03-17T02:37:30.215Z,7.5
2019-03-17T02:38:30.265Z,7.5
2019-03-17T02:39:30.372Z,7.5
2019-03-17T02:40:30.396Z,7.5
2019-03-17T02:41:30.442Z,7.5
2019-03-17T02:42:31.665Z,7.5
2019-03-17T02:43:30.589Z,7.5
2019-03-17T02:44:30.594Z,7.5
2019-03-17T02:45:30.622Z,7.5
2019-03-17T02:46:30.701Z,7.5
2019-03-17T02:47:30.767Z,7.5
2019-03-17T02:48:30.841Z,7.5
2019-03-17T02:49:30.862Z,7.5
2019-03-17T02:50:30.929Z,7.5
2019-03-17T02:51:30.991Z,7.5
2019-03-17T02:52:31.050Z,7.5
2019-03-17T02:53:31.104Z,7.5
2019-03-17T02:54:31.148Z,7.5
2019-03-17T02:55:31.224Z,7.5
2019-03-17T02:56:31.310Z,7.5
2019-03-17T02:57:31.308Z,7.5
2019-03-17T02:58:31.357Z,7.5
2019-03-17T02:59:31.420Z,7.5
2019-03-17T03:00:31.727Z,7.5
2019-03-17T03:01:31.629Z,7.5
2019-03-17T03:02:31.559Z,7.5
2019-03-17T03:03:31.635Z,7.5
2019-03-17T03:04:31.719Z,7.5
2019-03-17T03:05:31.762Z,7.5
2019-03-17T03:06:31.787Z,7.5
2019-03-17T03:07:31.856Z,7.6
2019-03-17T03:08:31.939Z,7.6
2019-03-17T03:09:31.986Z,7.6
2019-03-17T03:10:32.421Z,7.6
2019-03-17T03:11:32.121Z,7.6
2019-03-17T03:12:32.123Z,7.5
2019-03-17T03:13:32.209Z,7.6
2019-03-17T03:14:32.247Z,7.6
2019-03-17T03:15:32.276Z,7.6
2019-03-17T03:16:32.313Z,7.6
2019-03-17T03:17:32.413Z,7.5
2019-03-17T03:18:32.557Z,7.6
2019-03-17T03:19:32.501Z,7.6
2019-03-17T03:20:32.554Z,7.6
2019-03-17T03:21:32.670Z,7.6
2019-03-17T03:22:32.682Z,7.6
2019-03-17T03:23:32.766Z,7.6
2019-03-17T03:24:32.791Z,7.6
2019-03-17T03:25:32.855Z,7.6
2019-03-17T03:26:32.916Z,7.6
2019-03-17T03:27:32.947Z,7.6
2019-03-17T03:28:32.989Z,7.6
2019-03-17T03:29:33.044Z,7.6
2019-03-17T03:30:33.106Z,7.6
2019-03-17T03:31:33.141Z,7.6
2019-03-17T03:32:33.206Z,7.6
2019-03-17T03:33:33.242Z,7.6
2019-03-17T03:34:33.320Z,7.6
2019-03-17T03:35:33.348Z,7.6
2019-03-17T03:36:33.401Z,7.6
2019-03-17T03:37:33.439Z,7.6
2019-03-17T03:38:33.467Z,7.6
2019-03-17T03:39:33.552Z,7.6
2019-03-17T03:40:33.598Z,7.6
2019-03-17T03:41:33.643Z,7.6
2019-03-17T03:42:33.724Z,7.6
2019-03-17T03:43:33.780Z,7.6
2019-03-17T03:44:33.841Z,7.6
2019-03-17T03:45:34.016Z,7.7
2019-03-17T03:46:33.932Z,7.7
2019-03-17T03:47:33.997Z,7.6
2019-03-17T03:48:34.052Z,7.7
2019-03-17T03:49:34.112Z,7.7
2019-03-17T03:50:34.158Z,7.7
2019-03-17T03:51:34.188Z,7.7
2019-03-17T03:52:34.240Z,7.7
2019-03-17T03:53:34.298Z,7.7
2019-03-17T03:54:34.333Z,7.7
2019-03-17T03:55:34.382Z,7.7
2019-03-17T03:56:34.460Z,7.7
2019-03-17T03:57:34.534Z,7.7
2019-03-17T03:58:34.573Z,7.7
2019-03-17T03:59:34.608Z,7.7
2019-03-17T04:00:34.670Z,7.7
2019-03-17T04:01:34.743Z,7.7
2019-03-17T04:02:34.807Z,7.7
2019-03-17T04:03:34.880Z,7.7
2019-03-17T04:04:34.907Z,7.7
2019-03-17T04:05:34.951Z,7.7
2019-03-17T04:06:34.989Z,7.7
2019-03-17T04:07:35.097Z,7.7
2019-03-17T04:08:35.084Z,7.7
2019-03-17T04:09:35.166Z,7.7
2019-03-17T04:10:35.266Z,7.8
2019-03-17T04:11:35.236Z,7.8
2019-03-17T04:12:35.307Z,7.8
2019-03-17T04:13:35.361Z,7.8
2019-03-17T04:14:35.452Z,7.8
2019-03-17T04:15:35.547Z,7.8
2019-03-17T04:16:35.517Z,7.8
2019-03-17T04:17:35.678Z,7.8
2019-03-17T04:18:35.606Z,7.8
2019-03-17T04:19:35.671Z,7.8
2019-03-17T04:20:35.742Z,7.8
2019-03-17T04:21:35.875Z,7.8
2019-03-17T04:22:35.801Z,7.8
2019-03-17T04:23:35.893Z,7.8
2019-03-17T04:24:35.951Z,7.8
2019-03-17T04:25:36.122Z,7.8
2019-03-17T04:26:36.076Z,7.8
2019-03-17T04:27:36.193Z,7.8
2019-03-17T04:28:36.190Z,7.8
2019-03-17T04:29:36.247Z,7.9
2019-03-17T04:30:36.340Z,7.8
2019-03-17T04:31:36.657Z,7.9
2019-03-17T04:32:36.367Z,7.9
2019-03-17T04:33:36.429Z,7.9
2019-03-17T04:34:36.467Z,7.9
2019-03-17T04:35:36.561Z,7.9
2019-03-17T04:36:40.329Z,7.9
2019-03-17T04:37:36.692Z,7.9
2019-03-17T04:38:36.730Z,7.9
2019-03-17T04:39:37.320Z,7.9
2019-03-17T04:40:36.907Z,7.9
2019-03-17T04:41:36.877Z,7.9
2019-03-17T04:42:36.919Z,7.9
2019-03-17T04:43:36.966Z,7.9
2019-03-17T04:44:37.272Z,7.9
2019-03-17T04:45:37.126Z,7.9
2019-03-17T04:46:37.205Z,7.9
2019-03-17T04:47:37.216Z,7.9
2019-03-17T04:48:37.269Z,7.9
2019-03-17T04:49:37.331Z,7.9
2019-03-17T04:50:37.395Z,7.9
2019-03-17T04:51:37.425Z,7.9
2019-03-17T04:52:37.465Z,7.9
2019-03-17T04:53:37.515Z,7.9
2019-03-17T04:54:37.578Z,7.9
2019-03-17T04:55:37.637Z,7.9
2019-03-17T04:56:37.707Z,7.9
2019-03-17T04:57:37.742Z,7.9
2019-03-17T04:58:37.798Z,7.9
2019-03-17T04:59:37.848Z,7.9
2019-03-17T05:00:37.985Z,7.9
2019-03-17T05:01:37.948Z,7.9
2019-03-17T05:02:38.007Z,7.9
2019-03-17T05:03:38.024Z,8
2019-03-17T05:04:38.078Z,8
2019-03-17T05:05:38.102Z,8
2019-03-17T05:06:38.202Z,8
2019-03-17T05:07:38.255Z,8
2019-03-17T05:08:38.278Z,8
2019-03-17T05:09:38.303Z,8
2019-03-17T05:10:38.353Z,8
2019-03-17T05:11:38.431Z,8
2019-03-17T05:12:38.477Z,8
2019-03-17T05:13:38.563Z,8
2019-03-17T05:14:38.628Z,8
2019-03-17T05:15:38.691Z,8
2019-03-17T05:16:38.693Z,8
2019-03-17T05:17:38.782Z,8
2019-03-17T05:18:38.843Z,8
2019-03-17T05:19:38.905Z,8
2019-03-17T05:20:38.935Z,8
2019-03-17T05:21:38.990Z,8
2019-03-17T05:22:39.044Z,8
2019-03-17T05:23:39.085Z,8
2019-03-17T05:24:39.137Z,8
2019-03-17T05:25:39.195Z,8
2019-03-17T05:26:39.230Z,8
2019-03-17T05:27:39.307Z,8
2019-03-17T05:28:39.376Z,8
2019-03-17T05:29:39.453Z,8
2019-03-17T05:30:39.487Z,8
2019-03-17T05:31:39.537Z,8
2019-03-17T05:32:39.587Z,8
2019-03-17T05:33:39.678Z,8
2019-03-17T05:34:39.761Z,8
2019-03-17T05:35:39.811Z,8
2019-03-17T05:36:39.873Z,7.9
2019-03-17T05:37:39.935Z,7.9
2019-03-17T05:38:39.981Z,7.9
2019-03-17T05:39:40.009Z,7.9
2019-03-17T05:40:40.093Z,8
2019-03-17T05:41:40.125Z,7.9
2019-03-17T05:42:40.765Z,7.9
2019-03-17T05:43:40.230Z,7.9
2019-03-17T05:44:40.273Z,7.9
2019-03-17T05:45:40.296Z,7.9
2019-03-17T05:46:40.413Z,7.9
2019-03-17T05:47:40.443Z,7.9
2019-03-17T05:48:40.451Z,7.9
2019-03-17T05:49:40.521Z,7.9
2019-03-17T05:50:40.616Z,7.9
2019-03-17T05:51:40.656Z,8
2019-03-17T05:52:40.720Z,8
2019-03-17T05:53:40.762Z,7.9
2019-03-17T05:54:40.829Z,7.9
2019-03-17T05:55:40.891Z,7.9
2019-03-17T05:56:40.958Z,7.9
2019-03-17T05:57:41.414Z,7.9
2019-03-17T05:58:41.060Z,7.9
2019-03-17T05:59:41.119Z,7.9
2019-03-17T06:00:41.182Z,7.9
2019-03-17T06:01:41.245Z,7.9
2019-03-17T06:02:41.284Z,7.9
2019-03-17T06:03:41.876Z,7.9
2019-03-17T06:04:41.396Z,7.9
2019-03-17T06:05:41.550Z,7.9
2019-03-17T06:06:41.600Z,8
2019-03-17T06:07:41.668Z,8
2019-03-17T06:08:41.577Z,8
2019-03-17T06:09:41.644Z,8
2019-03-17T06:10:41.712Z,8
2019-03-17T06:11:41.764Z,8
2019-03-17T06:12:41.823Z,8
2019-03-17T06:13:41.927Z,8
2019-03-17T06:14:41.932Z,8
2019-03-17T06:15:41.971Z,8
2019-03-17T06:16:42.052Z,8
2019-03-17T06:17:42.254Z,8
2019-03-17T06:18:42.166Z,8
2019-03-17T06:19:42.242Z,8
2019-03-17T06:20:42.216Z,8
2019-03-17T06:21:42.265Z,8
2019-03-17T06:22:42.363Z,8.1
2019-03-17T06:23:42.423Z,8.1
2019-03-17T06:24:42.406Z,8.1
2019-03-17T06:25:42.498Z,8.1
2019-03-17T06:26:42.514Z,8.1
2019-03-17T06:27:42.573Z,8.1
2019-03-17T06:28:42.656Z,8.1
2019-03-17T06:29:42.687Z,8.1
2019-03-17T06:30:42.788Z,8.1
2019-03-17T06:31:42.834Z,8.1
2019-03-17T06:32:42.864Z,8.1
2019-03-17T06:33:42.920Z,8.1
2019-03-17T06:34:42.941Z,8.1
2019-03-17T06:35:43.053Z,8.1
2019-03-17T06:36:43.186Z,8.1
2019-03-17T06:37:43.187Z,8.1
2019-03-17T06:38:43.231Z,8.1
2019-03-17T06:39:43.249Z,8.1
2019-03-17T06:40:43.373Z,8.1
2019-03-17T06:41:43.349Z,8.2
2019-03-17T06:42:43.518Z,8.2
2019-03-17T06:43:43.479Z,8.2
2019-03-17T06:44:43.558Z,8.2
2019-03-17T06:45:43.595Z,8.2
2019-03-17T06:46:43.625Z,8.3
2019-03-17T06:47:43.684Z,8.3
2019-03-17T06:48:43.798Z,8.3
2019-03-17T06:49:43.772Z,8.3
2019-03-17T06:50:43.832Z,8.3
2019-03-17T06:51:43.922Z,8.3
2019-03-17T06:52:43.973Z,8.3
2019-03-17T06:53:55.647Z,8.3
2019-03-17T06:54:44.128Z,8.3
2019-03-17T06:55:44.165Z,8.3
2019-03-17T06:56:44.242Z,8.3
2019-03-17T06:57:44.287Z,8.3
2019-03-17T06:58:44.367Z,8.3
2019-03-17T06:59:44.445Z,8.4
2019-03-17T07:00:44.435Z,8.3
2019-03-17T07:01:44.469Z,8.3
2019-03-17T07:02:44.543Z,8.3
2019-03-17T07:03:44.598Z,8.3
2019-03-17T07:04:44.652Z,8.3
2019-03-17T07:05:44.732Z,8.3
2019-03-17T07:06:44.811Z,8.3
2019-03-17T07:07:44.997Z,8.3
2019-03-17T07:08:44.907Z,8.3
2019-03-17T07:09:44.937Z,8.3
2019-03-17T07:10:45.001Z,8.3
2019-03-17T07:11:45.032Z,8.3
2019-03-17T07:12:45.082Z,8.3
2019-03-17T07:13:45.147Z,8.3
2019-03-17T07:14:45.215Z,8.3
2019-03-17T07:15:45.256Z,8.3
2019-03-17T07:16:45.313Z,8.3
2019-03-17T07:17:45.355Z,8.3
2019-03-17T07:18:45.438Z,8.3
2019-03-17T07:19:45.934Z,8.3
2019-03-17T07:20:45.510Z,8.3
2019-03-17T07:21:45.536Z,8.3
2019-03-17T07:22:45.614Z,8.3
2019-03-17T07:23:45.653Z,8.3
2019-03-17T07:24:45.707Z,8.3
2019-03-17T07:25:45.777Z,8.3
2019-03-17T07:26:45.786Z,8.3
2019-03-17T07:27:45.877Z,8.3
2019-03-17T07:28:45.965Z,8.3
2019-03-17T07:29:45.978Z,8.3
2019-03-17T07:30:46.027Z,8.3
2019-03-17T07:31:46.277Z,8.3
2019-03-17T07:32:46.159Z,8.4
2019-03-17T07:33:46.259Z,8.4
2019-03-17T07:34:46.328Z,8.4
2019-03-17T07:35:46.569Z,8.4
2019-03-17T07:36:46.403Z,8.4
2019-03-17T07:37:56.051Z,8.4
2019-03-17T07:38:46.496Z,8.4
2019-03-17T07:39:46.744Z,8.4
2019-03-17T07:40:46.668Z,8.4
2019-03-17T07:41:46.664Z,8.4
2019-03-17T07:42:46.719Z,8.4
2019-03-17T07:43:46.759Z,8.4
2019-03-17T07:44:46.806Z,8.4
2019-03-17T07:45:46.844Z,8.4
2019-03-17T07:46:46.920Z,8.4
2019-03-17T07:47:47.044Z,8.4
2019-03-17T07:48:47.028Z,8.4
2019-03-17T07:49:47.147Z,8.5
2019-03-17T07:50:47.172Z,8.5
2019-03-17T07:51:47.199Z,8.5
2019-03-17T07:52:47.264Z,8.5
2019-03-17T07:53:47.324Z,8.5
2019-03-17T07:54:47.349Z,8.5
2019-03-17T07:55:47.418Z,8.5
2019-03-17T07:56:47.519Z,8.6
2019-03-17T07:57:47.509Z,8.6
2019-03-17T07:58:47.563Z,8.6
2019-03-17T07:59:47.643Z,8.6
2019-03-17T08:00:47.753Z,8.6
2019-03-17T08:01:48.177Z,8.6
2019-03-17T08:02:47.890Z,8.6
2019-03-17T08:03:47.891Z,8.6
2019-03-17T08:04:47.915Z,8.6
2019-03-17T08:05:48.028Z,8.7
2019-03-17T08:06:48.054Z,8.7
2019-03-17T08:07:48.181Z,8.7
2019-03-17T08:08:48.215Z,8.7
2019-03-17T08:09:48.299Z,8.8
2019-03-17T08:10:48.301Z,8.8
2019-03-17T08:11:48.328Z,8.8
2019-03-17T08:12:48.361Z,8.8
2019-03-17T08:13:48.477Z,8.9
2019-03-17T08:14:48.516Z,8.9
2019-03-17T08:15:48.580Z,8.9
2019-03-17T08:16:48.621Z,8.9
2019-03-17T08:17:48.581Z,8.9
2019-03-17T08:18:48.703Z,9
2019-03-17T08:19:48.699Z,9
2019-03-17T08:20:48.742Z,9
2019-03-17T08:21:48.777Z,9
2019-03-17T08:22:48.842Z,9.1
2019-03-17T08:23:48.880Z,9.1
2019-03-17T08:24:48.947Z,9.2
2019-03-17T08:25:49.012Z,9.2
2019-03-17T08:26:50.159Z,9.2
2019-03-17T08:27:49.112Z,9.3
2019-03-17T08:28:49.175Z,9.3
2019-03-17T08:29:49.249Z,9.2
2019-03-17T08:30:53.262Z,9.2
2019-03-17T08:31:49.327Z,9.2
2019-03-17T08:32:49.399Z,9.2
2019-03-17T08:33:50.543Z,9.2
2019-03-17T08:34:49.501Z,9.2
2019-03-17T08:35:49.558Z,9.2
2019-03-17T08:36:49.609Z,9.2
2019-03-17T08:37:50.005Z,9.2
2019-03-17T08:38:49.751Z,9.2
2019-03-17T08:39:49.947Z,9.2
2019-03-17T08:40:49.853Z,9.2
2019-03-17T08:41:49.944Z,9.2
2019-03-17T08:42:49.965Z,9.2
2019-03-17T08:43:54.351Z,9.2
2019-03-17T08:44:50.034Z,9.2
2019-03-17T08:45:50.572Z,9.2
2019-03-17T08:46:50.138Z,9.2
2019-03-17T08:47:57.682Z,9.1
2019-03-17T08:48:50.287Z,9.1
2019-03-17T08:49:50.439Z,9.1
2019-03-17T08:50:50.325Z,9.1
2019-03-17T08:51:52.155Z,9.1
2019-03-17T08:52:50.468Z,9.1
2019-03-17T08:53:52.948Z,9
2019-03-17T08:54:50.634Z,9
2019-03-17T08:55:50.726Z,9
2019-03-17T08:56:50.689Z,9
2019-03-17T08:57:51.112Z,9
2019-03-17T08:58:51.166Z,9
2019-03-17T08:59:50.955Z,9
2019-03-17T09:00:50.917Z,9
2019-03-17T09:01:51.137Z,9
2019-03-17T09:02:51.304Z,9
2019-03-17T09:03:51.037Z,8.9
2019-03-17T09:04:51.322Z,8.9
2019-03-17T09:05:51.564Z,8.9
2019-03-17T09:06:51.306Z,8.9
2019-03-17T09:07:52.044Z,8.9
2019-03-17T09:08:51.324Z,8.9
2019-03-17T09:09:53.785Z,8.9
2019-03-17T09:10:51.402Z,8.9
2019-03-17T09:11:51.759Z,8.9
2019-03-17T09:12:51.547Z,8.9
2019-03-17T09:13:51.846Z,8.9
2019-03-17T09:14:51.641Z,8.9
2019-03-17T09:15:52.326Z,9
2019-03-17T09:16:51.738Z,9
2019-03-17T09:17:53.663Z,8.9
2019-03-17T09:18:51.842Z,8.9
2019-03-17T09:19:52.606Z,8.9
2019-03-17T09:20:51.962Z,8.9
2019-03-17T09:21:53.502Z,8.9
2019-03-17T09:22:52.048Z,8.9
2019-03-17T09:23:53.064Z,8.8
2019-03-17T09:24:52.120Z,8.7
2019-03-17T09:25:53.786Z,8.5
2019-03-17T09:26:52.239Z,8.3
2019-03-17T09:27:52.377Z,8.2
2019-03-17T09:28:53.459Z,8.1
2019-03-17T09:29:55.565Z,8
2019-03-17T09:30:52.410Z,8
2019-03-17T09:31:52.688Z,7.9
2019-03-17T09:32:52.568Z,7.9
2019-03-17T09:33:55.082Z,7.9
2019-03-17T09:34:52.638Z,7.8
2019-03-17T09:35:53.096Z,7.7
2019-03-17T09:36:52.766Z,7.7
2019-03-17T09:37:53.006Z,7.7
2019-03-17T09:38:53.135Z,7.6
2019-03-17T09:39:53.205Z,7.6
2019-03-17T09:40:53.181Z,7.6
2019-03-17T09:41:53.878Z,7.5
2019-03-17T09:42:53.678Z,7.5
2019-03-17T09:43:54.116Z,7.5
2019-03-17T09:44:53.929Z,7.5
2019-03-17T09:45:53.528Z,7.4
2019-03-17T09:46:54.435Z,7.4
2019-03-17T09:47:54.527Z,7.3
2019-03-17T09:48:54.492Z,7.3
2019-03-17T09:49:54.995Z,7.3
2019-03-17T09:50:54.625Z,7.2
2019-03-17T09:51:55.095Z,7.2
2019-03-17T09:52:55.187Z,7.2
2019-03-17T09:53:55.731Z,7.2
2019-03-17T09:54:55.359Z,7.1
2019-03-17T09:55:54.197Z,7.1
2019-03-17T09:56:55.968Z,7.1
2019-03-17T09:57:55.921Z,7.1
2019-03-17T09:58:55.000Z,7.1
2019-03-17T09:59:56.121Z,7
2019-03-17T10:00:55.198Z,7
2019-03-17T10:01:56.742Z,7
2019-03-17T10:02:56.596Z,7
2019-03-17T10:03:56.983Z,7
2019-03-17T10:04:55.688Z,6.9
2019-03-17T10:05:57.246Z,6.9
2019-03-17T10:06:54.455Z,7
2019-03-17T10:07:56.163Z,6.9
2019-03-17T10:08:59.681Z,6.9
2019-03-17T10:09:55.288Z,6.9
2019-03-17T10:10:58.421Z,6.9
2019-03-17T10:11:54.570Z,6.9
2019-03-17T10:12:54.643Z,6.9
2019-03-17T10:13:54.703Z,6.8
2019-03-17T10:14:54.806Z,6.8
2019-03-17T10:15:54.885Z,6.8
2019-03-17T10:16:54.951Z,6.8
2019-03-17T10:17:54.933Z,6.8
2019-03-17T10:18:55.094Z,6.7
2019-03-17T10:19:55.004Z,6.7
2019-03-17T10:20:55.073Z,6.7
2019-03-17T10:21:55.097Z,6.7
2019-03-17T10:22:55.178Z,6.7
2019-03-17T10:23:55.213Z,6.7
2019-03-17T10:24:55.514Z,6.7
2019-03-17T10:25:55.325Z,6.7
2019-03-17T10:26:55.358Z,6.7
2019-03-17T10:27:55.544Z,6.6
2019-03-17T10:28:55.567Z,6.6
2019-03-17T10:29:55.788Z,6.6
2019-03-17T10:30:55.598Z,6.6
2019-03-17T10:31:55.648Z,6.6
2019-03-17T10:32:55.707Z,6.6
2019-03-17T10:33:55.762Z,6.6
2019-03-17T10:34:55.810Z,6.6
2019-03-17T10:35:55.931Z,6.6
2019-03-17T10:36:55.972Z,6.6
2019-03-17T10:37:56.064Z,6.6
2019-03-17T10:38:56.033Z,6.6
2019-03-17T10:39:56.133Z,6.6
2019-03-17T10:40:56.178Z,6.5
2019-03-17T10:41:56.230Z,6.6
2019-03-17T10:42:56.269Z,6.6
2019-03-17T10:43:56.333Z,6.5
2019-03-17T10:44:56.378Z,6.5
2019-03-17T10:45:56.435Z,6.5
2019-03-17T10:46:56.469Z,6.5
2019-03-17T10:47:56.577Z,6.5
2019-03-17T10:48:56.615Z,6.5
2019-03-17T10:49:56.673Z,6.5
2019-03-17T10:50:56.725Z,6.5
2019-03-17T10:51:56.750Z,6.4
2019-03-17T10:52:56.806Z,6.4
2019-03-17T10:53:56.841Z,6.4
2019-03-17T10:54:56.912Z,6.4
2019-03-17T10:55:57.000Z,6.4
2019-03-17T10:56:57.013Z,6.4
2019-03-17T10:57:57.056Z,6.4
2019-03-17T10:58:57.101Z,6.4
2019-03-17T10:59:57.187Z,6.4
2019-03-17T11:00:57.236Z,6.4
2019-03-17T11:01:57.295Z,6.3
2019-03-17T11:02:57.329Z,6.3
2019-03-17T11:03:57.360Z,6.3
2019-03-17T11:04:57.426Z,6.3
2019-03-17T11:05:57.568Z,6.3
2019-03-17T11:06:57.524Z,6.3
2019-03-17T11:07:57.588Z,6.3
2019-03-17T11:08:57.646Z,6.3
2019-03-17T11:09:57.691Z,6.3
2019-03-17T11:10:57.756Z,6.3
2019-03-17T11:11:57.841Z,6.3
2019-03-17T11:12:57.888Z,6.3
2019-03-17T11:14:14.046Z,6.3
2019-03-17T11:14:58.060Z,6.3
2019-03-17T11:15:58.079Z,6.3
2019-03-17T11:16:58.139Z,6.3
2019-03-17T11:17:58.154Z,6.3
2019-03-17T11:18:58.254Z,6.3
2019-03-17T11:19:58.288Z,6.3
2019-03-17T11:20:58.351Z,6.3
2019-03-17T11:21:58.384Z,6.3
2019-03-17T11:22:58.435Z,6.3
2019-03-17T11:23:58.550Z,6.3
2019-03-17T11:24:58.577Z,6.3
2019-03-17T11:25:58.618Z,6.3
2019-03-17T11:26:58.676Z,6.3
2019-03-17T11:27:58.746Z,6.3
2019-03-17T11:28:58.825Z,6.3
2019-03-17T11:29:58.829Z,6.3
2019-03-17T11:30:58.926Z,6.3
2019-03-17T11:31:58.969Z,6.3
2019-03-17T11:32:59.048Z,6.3
2019-03-17T11:33:59.099Z,6.3
2019-03-17T11:34:59.153Z,6.3
2019-03-17T11:35:59.199Z,6.3
2019-03-17T11:36:59.272Z,6.3
2019-03-17T11:37:59.318Z,6.3
2019-03-17T11:38:59.369Z,6.3
2019-03-17T11:39:59.418Z,6.3
2019-03-17T11:40:59.487Z,6.3
2019-03-17T11:41:59.537Z,6.3
2019-03-17T11:42:59.593Z,6.4
2019-03-17T11:43:59.637Z,6.4
2019-03-17T11:44:59.701Z,6.4
2019-03-17T11:45:59.732Z,6.3
2019-03-17T11:46:59.799Z,6.4
2019-03-17T11:47:59.825Z,6.4
2019-03-17T11:48:59.895Z,6.4
2019-03-17T11:50:00.114Z,6.4
2019-03-17T11:51:00.040Z,6.4
2019-03-17T11:52:00.088Z,6.4
2019-03-17T11:53:00.625Z,6.4
2019-03-17T11:54:00.531Z,6.3
2019-03-17T11:55:00.523Z,6.3
2019-03-17T11:56:00.517Z,6.3
2019-03-17T11:57:00.493Z,6.3
2019-03-17T11:58:00.483Z,6.3
2019-03-17T11:59:00.449Z,6.3
2019-03-17T12:00:00.544Z,6.3
2019-03-17T12:01:01.713Z,6.3
2019-03-17T12:02:00.618Z,6.3
2019-03-17T12:03:00.698Z,6.3
2019-03-17T12:04:01.090Z,6.3
2019-03-17T12:05:00.770Z,6.3
2019-03-17T12:06:00.859Z,6.3
2019-03-17T12:07:00.914Z,6.4
2019-03-17T12:08:00.963Z,6.4
2019-03-17T12:09:04.232Z,6.4
2019-03-17T12:10:01.409Z,6.4
2019-03-17T12:11:01.534Z,6.4
2019-03-17T12:12:01.249Z,6.4
2019-03-17T12:13:01.284Z,6.4
2019-03-17T12:14:01.351Z,6.4
2019-03-17T12:15:01.400Z,6.4
2019-03-17T12:16:01.465Z,6.4
2019-03-17T12:17:01.487Z,6.4
2019-03-17T12:18:01.581Z,6.4
2019-03-17T12:19:01.643Z,6.4
2019-03-17T12:20:01.706Z,6.4
2019-03-17T12:21:01.828Z,6.4
2019-03-17T12:22:08.727Z,6.4
2019-03-17T12:23:01.873Z,6.4
2019-03-17T12:24:01.897Z,6.4
2019-03-17T12:25:01.940Z,6.4
2019-03-17T12:26:02.030Z,6.4
2019-03-17T12:27:02.094Z,6.4
2019-03-17T12:28:02.131Z,6.4
2019-03-17T12:29:02.154Z,6.4
2019-03-17T12:30:02.246Z,6.4
2019-03-17T12:31:02.324Z,6.4
2019-03-17T12:32:02.359Z,6.4
2019-03-17T12:33:02.457Z,6.4
2019-03-17T12:34:02.692Z,6.4
2019-03-17T12:35:02.553Z,6.4
2019-03-17T12:36:02.587Z,6.4
2019-03-17T12:37:02.619Z,6.4
2019-03-17T12:38:02.696Z,6.4
2019-03-17T12:39:02.741Z,6.4
2019-03-17T12:40:03.407Z,6.4
2019-03-17T12:41:03.077Z,6.4
2019-03-17T12:42:02.903Z,6.4
2019-03-17T12:43:02.961Z,6.4
2019-03-17T12:44:02.991Z,6.4
2019-03-17T12:45:03.067Z,6.4
2019-03-17T12:46:03.129Z,6.4
2019-03-17T12:47:03.172Z,6.4
2019-03-17T12:48:03.246Z,6.4
2019-03-17T12:49:03.296Z,6.5
2019-03-17T12:50:03.352Z,6.5
2019-03-17T12:51:03.405Z,6.5
2019-03-17T12:52:03.452Z,6.5
2019-03-17T12:53:03.517Z,6.6
2019-03-17T12:54:03.645Z,6.5
2019-03-17T12:55:03.659Z,6.6
2019-03-17T12:56:03.701Z,6.6
2019-03-17T12:57:03.764Z,6.6
2019-03-17T12:58:03.828Z,6.6
2019-03-17T12:59:03.903Z,6.6
2019-03-17T13:00:03.960Z,6.6
2019-03-17T13:01:03.985Z,6.6
2019-03-17T13:02:04.074Z,6.6
2019-03-17T13:03:04.111Z,6.6
2019-03-17T13:04:04.159Z,6.6
2019-03-17T13:05:04.210Z,6.6
2019-03-17T13:06:04.225Z,6.6
2019-03-17T13:07:04.308Z,6.6
2019-03-17T13:08:04.354Z,6.6
2019-03-17T13:09:04.412Z,6.6
2019-03-17T13:10:14.832Z,6.6
2019-03-17T13:11:05.030Z,6.6
2019-03-17T13:12:04.621Z,6.6
2019-03-17T13:13:04.658Z,6.6
2019-03-17T13:14:06.833Z,6.6
2019-03-17T13:15:04.763Z,6.6
2019-03-17T13:16:04.800Z,6.6
2019-03-17T13:17:04.844Z,6.6
2019-03-17T13:18:04.914Z,6.6
2019-03-17T13:19:04.947Z,6.6
2019-03-17T13:20:04.986Z,6.6
2019-03-17T13:21:05.066Z,6.6
2019-03-17T13:22:05.127Z,6.7
2019-03-17T13:23:05.167Z,6.8
2019-03-17T13:24:05.255Z,6.9
2019-03-17T13:25:05.305Z,6.9
2019-03-17T13:26:05.354Z,6.9
2019-03-17T13:27:05.422Z,6.9
2019-03-17T13:28:05.455Z,6.9
2019-03-17T13:29:05.510Z,7
2019-03-17T13:30:05.621Z,7.2
2019-03-17T13:31:05.612Z,7.2
2019-03-17T13:32:05.657Z,7.2
2019-03-17T13:33:05.829Z,7.3
2019-03-17T13:34:05.981Z,7.4
2019-03-17T13:35:05.897Z,7.6
2019-03-17T13:36:06.266Z,7.8
2019-03-17T13:37:06.065Z,7.7
2019-03-17T13:38:06.094Z,7.6
2019-03-17T13:39:06.188Z,7.6
2019-03-17T13:40:06.256Z,7.6
2019-03-17T13:41:06.702Z,7.8
2019-03-17T13:42:06.370Z,7.9
2019-03-17T13:43:06.426Z,8
2019-03-17T13:44:06.360Z,8.2
2019-03-17T13:45:07.027Z,8.3
2019-03-17T13:46:06.416Z,8.4
2019-03-17T13:47:13.080Z,8.5
2019-03-17T13:48:06.534Z,8.5
2019-03-17T13:49:06.631Z,8.5
2019-03-17T13:50:06.631Z,8.5
2019-03-17T13:51:06.727Z,8.6
2019-03-17T13:52:06.846Z,8.6
2019-03-17T13:53:07.007Z,8.6